createdAt,value
2017-08-06T00:00:06.308Z,996.45
2017-08-06T00:01:16.734Z,996.54
2017-08-06T00:02:30.677Z,996.63
2017-08-06T00:05:12.407Z,996.83
2017-08-06T00:06:22.766Z,996.86
2017-08-06T00:07:33.121Z,996.87
2017-08-06T00:08:43.163Z,996.89
2017-08-06T00:09:53.184Z,996.87
2017-08-06T00:11:03.599Z,996.84
2017-08-06T00:12:17.139Z,996.8
2017-08-06T00:13:27.485Z,996.75
2017-08-06T00:14:37.530Z,996.69
2017-08-06T00:15:47.874Z,996.69
2017-08-06T00:16:58.269Z,996.63
2017-08-06T00:18:08.621Z,996.6
2017-08-06T00:19:18.984Z,996.54
2017-08-06T00:20:29.036Z,996.54
2017-08-06T00:21:39.093Z,996.55
2017-08-06T00:22:49.495Z,996.6
2017-08-06T00:23:59.526Z,996.67
2017-08-06T00:25:09.889Z,996.75
2017-08-06T00:26:20.252Z,996.76
2017-08-06T00:27:30.634Z,996.79
2017-08-06T00:28:40.712Z,996.75
2017-08-06T00:29:51.063Z,996.78
2017-08-06T00:31:01.442Z,996.76
2017-08-06T00:32:11.802Z,996.77
2017-08-06T00:33:21.856Z,996.78
2017-08-06T00:34:32.269Z,996.74
2017-08-06T00:35:42.618Z,996.77
2017-08-06T00:36:52.968Z,996.81
2017-08-06T00:38:02.995Z,996.86
2017-08-06T00:39:13.343Z,996.88
2017-08-06T00:40:23.735Z,996.87
2017-08-06T00:41:34.083Z,996.92
2017-08-06T00:42:44.122Z,996.92
2017-08-06T00:43:54.465Z,996.94
2017-08-06T00:45:04.532Z,996.97
2017-08-06T00:46:14.930Z,997
2017-08-06T00:47:25.272Z,997.05
2017-08-06T00:48:35.623Z,997.1
2017-08-06T00:49:45.984Z,997.12
2017-08-06T00:50:56.012Z,997.14
2017-08-06T00:52:06.417Z,997.23
2017-08-06T00:53:16.756Z,997.27
2017-08-06T00:54:27.090Z,997.27
2017-08-06T00:55:37.127Z,997.29
2017-08-06T00:56:47.171Z,997.31
2017-08-06T00:57:57.575Z,997.29
2017-08-06T00:59:07.606Z,997.28
2017-08-06T01:00:17.626Z,997.34
2017-08-06T01:01:27.657Z,997.32
2017-08-06T01:02:38.023Z,997.33
2017-08-06T01:03:48.428Z,997.35
2017-08-06T01:04:58.782Z,997.33
2017-08-06T01:06:08.808Z,997.33
2017-08-06T01:07:19.146Z,997.31
2017-08-06T01:08:29.522Z,997.32
2017-08-06T01:09:42.212Z,997.29
2017-08-06T01:10:52.566Z,997.28
2017-08-06T01:12:02.936Z,997.29
2017-08-06T01:13:13.279Z,997.31
2017-08-06T01:14:23.623Z,997.32
2017-08-06T01:15:34.017Z,997.41
2017-08-06T01:16:44.365Z,997.43
2017-08-06T01:17:54.711Z,997.5
2017-08-06T01:19:04.751Z,997.53
2017-08-06T01:20:15.097Z,997.58
2017-08-06T01:21:25.511Z,997.54
2017-08-06T01:22:35.870Z,997.5
2017-08-06T01:23:46.211Z,997.48
2017-08-06T01:24:56.549Z,997.54
2017-08-06T01:26:06.909Z,997.5
2017-08-06T01:27:17.003Z,997.51
2017-08-06T01:28:27.032Z,997.55
2017-08-06T01:29:37.379Z,997.57
2017-08-06T01:30:47.743Z,997.47
2017-08-06T01:31:57.792Z,997.45
2017-08-06T01:33:08.183Z,997.38
2017-08-06T01:34:18.552Z,997.33
2017-08-06T01:35:28.906Z,997.3
2017-08-06T01:36:39.273Z,997.28
2017-08-06T01:37:49.631Z,997.26
2017-08-06T01:38:59.727Z,997.27
2017-08-06T01:40:10.084Z,997.26
2017-08-06T01:41:19.492Z,997.29
2017-08-06T01:42:29.857Z,997.29
2017-08-06T01:43:40.218Z,997.26
2017-08-06T01:44:50.332Z,997.25
2017-08-06T01:46:00.371Z,997.14
2017-08-06T01:47:10.718Z,997.13
2017-08-06T01:48:20.776Z,997.09
2017-08-06T01:49:31.125Z,997.12
2017-08-06T01:50:41.542Z,997.12
2017-08-06T01:51:51.892Z,997.21
2017-08-06T01:53:01.905Z,997.3
2017-08-06T01:54:11.946Z,997.38
2017-08-06T01:55:21.985Z,997.45
2017-08-06T01:56:32.386Z,997.49
2017-08-06T01:57:42.737Z,997.52
2017-08-06T01:58:53.095Z,997.52
2017-08-06T02:00:03.458Z,997.54
2017-08-06T02:01:13.176Z,997.54
2017-08-06T02:02:23.594Z,997.56
2017-08-06T02:03:33.944Z,997.62
2017-08-06T02:04:44.283Z,997.65
2017-08-06T02:05:54.634Z,997.69
2017-08-06T02:07:04.665Z,997.72
2017-08-06T02:08:14.134Z,997.78
2017-08-06T02:09:24.174Z,997.85
2017-08-06T02:10:34.207Z,997.92
2017-08-06T02:11:44.906Z,997.95
2017-08-06T02:12:55.242Z,997.94
2017-08-06T02:14:05.367Z,997.91
2017-08-06T02:15:15.715Z,997.96
2017-08-06T02:16:26.064Z,997.89
2017-08-06T02:17:36.091Z,997.92
2017-08-06T02:18:46.453Z,997.92
2017-08-06T02:19:56.539Z,997.91
2017-08-06T02:21:06.571Z,997.94
2017-08-06T02:22:16.929Z,997.84
2017-08-06T02:23:26.650Z,997.94
2017-08-06T02:24:36.685Z,997.95
2017-08-06T02:25:47.095Z,998.02
2017-08-06T02:26:57.461Z,998.11
2017-08-06T02:28:07.823Z,998.22
2017-08-06T02:29:18.178Z,998.09
2017-08-06T02:30:28.525Z,998.1
2017-08-06T02:31:38.909Z,998.01
2017-08-06T02:32:49.259Z,998.17
2017-08-06T02:34:02.521Z,997.95
2017-08-06T02:35:12.876Z,997.9
2017-08-06T02:36:23.229Z,997.91
2017-08-06T02:37:33.629Z,998.05
2017-08-06T02:38:43.998Z,997.85
2017-08-06T02:39:54.339Z,997.92
2017-08-06T02:41:04.388Z,997.8
2017-08-06T02:42:14.426Z,997.83
2017-08-06T02:43:24.834Z,997.96
2017-08-06T02:44:35.198Z,997.87
2017-08-06T02:45:45.239Z,997.94
2017-08-06T02:46:55.578Z,997.91
2017-08-06T02:48:05.613Z,997.9
2017-08-06T02:49:16.033Z,997.94
2017-08-06T02:50:26.078Z,997.88
2017-08-06T02:51:37.229Z,997.86
2017-08-06T02:52:47.574Z,997.87
2017-08-06T02:53:57.910Z,997.88
2017-08-06T02:55:08.612Z,997.93
2017-08-06T02:56:18.955Z,997.76
2017-08-06T02:57:29.013Z,997.73
2017-08-06T02:58:38.753Z,997.82
2017-08-06T02:59:49.100Z,997.88
2017-08-06T03:00:59.516Z,997.88
2017-08-06T03:02:09.863Z,997.94
2017-08-06T03:34:04.144Z,998.08
2017-08-06T03:35:14.484Z,998.1
2017-08-06T03:36:24.506Z,998.23
2017-08-06T03:37:34.840Z,998.31
2017-08-06T03:38:45.190Z,998.3
2017-08-06T03:39:55.580Z,998.34
2017-08-06T03:41:05.932Z,998.36
2017-08-06T03:42:16.801Z,998.39
2017-08-06T03:43:27.144Z,998.38
2017-08-06T03:44:36.842Z,998.45
2017-08-06T03:45:47.244Z,998.47
2017-08-06T03:46:57.276Z,998.5
2017-08-06T03:48:07.613Z,998.53
2017-08-06T03:49:17.944Z,998.54
2017-08-06T03:50:27.970Z,998.57
2017-08-06T03:51:38.053Z,998.53
2017-08-06T03:52:48.394Z,998.5
2017-08-06T03:53:58.752Z,998.42
2017-08-06T03:55:09.136Z,998.45
2017-08-06T03:56:19.485Z,998.4
2017-08-06T03:57:29.875Z,998.41
2017-08-06T03:58:39.924Z,998.39
2017-08-06T03:59:50.271Z,998.4
2017-08-06T04:01:00.303Z,998.47
2017-08-06T04:02:10.654Z,998.53
2017-08-06T04:03:21.046Z,998.52
2017-08-06T04:04:30.773Z,998.55
2017-08-06T04:05:40.848Z,998.54
2017-08-06T04:06:51.199Z,998.56
2017-08-06T04:08:01.553Z,998.59
2017-08-06T04:09:11.644Z,998.52
2017-08-06T04:10:22.028Z,998.55
2017-08-06T04:11:32.370Z,998.6
2017-08-06T04:12:42.712Z,998.6
2017-08-06T04:13:53.045Z,998.61
2017-08-06T04:15:03.139Z,998.68
2017-08-06T04:16:13.500Z,998.65
2017-08-06T04:17:23.537Z,998.7
2017-08-06T04:18:33.557Z,998.65
2017-08-06T04:19:43.912Z,998.61
2017-08-06T04:20:54.303Z,998.66
2017-08-06T04:22:04.346Z,998.63
2017-08-06T04:23:14.694Z,998.65
2017-08-06T04:24:24.419Z,998.67
2017-08-06T04:25:36.152Z,998.69
2017-08-06T04:26:46.554Z,998.74
2017-08-06T04:27:56.899Z,998.64
2017-08-06T04:29:06.942Z,998.64
2017-08-06T04:30:16.981Z,998.7
2017-08-06T04:31:27.010Z,998.74
2017-08-06T04:32:37.087Z,998.78
2017-08-06T04:33:47.441Z,998.81
2017-08-06T04:34:57.464Z,998.86
2017-08-06T04:36:07.504Z,998.92
2017-08-06T04:37:17.857Z,998.94
2017-08-06T04:38:28.251Z,998.97
2017-08-06T04:39:38.589Z,999.04
2017-08-06T04:40:48.929Z,999.04
2017-08-06T04:41:58.954Z,999.13
2017-08-06T04:43:14.407Z,999.14
2017-08-06T04:44:24.812Z,999.23
2017-08-06T04:45:35.161Z,999.24
2017-08-06T04:46:45.497Z,999.22
2017-08-06T04:47:55.522Z,999.26
2017-08-06T04:49:05.875Z,999.27
2017-08-06T04:50:15.961Z,999.29
2017-08-06T04:51:26.292Z,999.32
2017-08-06T04:52:36.335Z,999.31
2017-08-06T04:53:46.693Z,999.29
2017-08-06T04:54:56.726Z,999.3
2017-08-06T04:56:07.122Z,999.32
2017-08-06T04:57:17.472Z,999.31
2017-08-06T04:58:27.828Z,999.35
2017-08-06T04:59:37.866Z,999.35
2017-08-06T05:00:54.271Z,999.35
2017-08-06T05:02:04.665Z,999.32
2017-08-06T05:03:14.997Z,999.41
2017-08-06T05:04:25.333Z,999.41
2017-08-06T05:05:35.367Z,999.37
2017-08-06T05:06:45.396Z,999.45
2017-08-06T05:07:55.796Z,999.43
2017-08-06T05:09:05.835Z,999.49
2017-08-06T05:10:16.171Z,999.45
2017-08-06T05:11:26.513Z,999.52
2017-08-06T05:12:36.540Z,999.5
2017-08-06T05:13:51.338Z,999.59
2017-08-06T05:15:01.678Z,999.62
2017-08-06T05:16:11.710Z,999.59
2017-08-06T05:17:22.063Z,999.61
2017-08-06T05:18:31.165Z,999.6
2017-08-06T05:19:43.504Z,999.67
2017-08-06T05:20:53.538Z,999.74
2017-08-06T05:22:03.885Z,999.72
2017-08-06T05:23:19.642Z,999.69
2017-08-06T05:24:29.984Z,999.71
2017-08-06T05:25:46.191Z,999.73
2017-08-06T05:26:56.542Z,999.72
2017-08-06T05:28:06.898Z,999.74
2017-08-06T05:29:16.924Z,999.8
2017-08-06T05:30:28.178Z,999.81
2017-08-06T05:31:37.960Z,1000.24
2017-08-06T05:32:48.298Z,1000.32
2017-08-06T05:33:58.637Z,1000.03
2017-08-06T05:35:08.977Z,1000.27
2017-08-06T05:36:18.717Z,999.91
2017-08-06T05:37:28.798Z,999.93
2017-08-06T05:38:46.305Z,999.95
2017-08-06T05:40:01.601Z,1000.01
2017-08-06T05:41:11.942Z,1000.01
2017-08-06T05:42:22.296Z,1000.03
2017-08-06T05:43:32.689Z,1000.04
2017-08-06T05:44:42.713Z,1000.12
2017-08-06T05:45:52.767Z,1000.18
2017-08-06T05:47:03.123Z,1000.14
2017-08-06T05:48:13.524Z,1000.2
2017-08-06T05:49:23.882Z,1000.21
2017-08-06T05:50:34.248Z,1000.22
2017-08-06T05:51:44.609Z,1000.18
2017-08-06T05:52:54.957Z,1000.12
2017-08-06T05:54:05.038Z,1000.12
2017-08-06T05:55:15.476Z,1000.15
2017-08-06T05:56:25.822Z,1000.16
2017-08-06T05:57:35.859Z,1000.26
2017-08-06T05:58:46.215Z,1000.3
2017-08-06T05:59:56.622Z,1000.38
2017-08-06T06:01:06.974Z,1000.56
2017-08-06T06:02:17.351Z,1000.48
2017-08-06T06:03:27.693Z,1000.37
2017-08-06T06:04:38.039Z,1000.29
2017-08-06T06:05:50.484Z,1000.32
2017-08-06T06:07:00.843Z,1000.32
2017-08-06T06:08:11.988Z,1000.35
2017-08-06T06:09:21.736Z,1000.42
2017-08-06T06:10:32.090Z,1000.49
2017-08-06T06:11:42.192Z,1000.45
2017-08-06T06:12:52.575Z,1000.56
2017-08-06T06:14:02.917Z,1000.59
2017-08-06T06:15:13.251Z,1000.59
2017-08-06T06:16:23.617Z,1000.64
2017-08-06T06:17:34.259Z,1000.72
2017-08-06T06:18:44.605Z,1000.77
2017-08-06T06:19:54.654Z,1000.78
2017-08-06T06:21:05.007Z,1000.78
2017-08-06T06:22:14.728Z,1000.78
2017-08-06T06:23:26.865Z,1000.73
2017-08-06T06:24:36.893Z,1000.87
2017-08-06T06:25:47.266Z,1000.88
2017-08-06T06:26:57.304Z,1000.95
2017-08-06T06:28:07.360Z,1000.99
2017-08-06T06:29:20.360Z,1000.98
2017-08-06T06:30:30.373Z,1000.99
2017-08-06T06:31:40.730Z,1001.01
2017-08-06T06:32:51.072Z,1001.04
2017-08-06T06:34:00.824Z,1000.98
2017-08-06T06:35:10.930Z,1001.02
2017-08-06T06:36:21.288Z,1000.96
2017-08-06T06:37:31.333Z,1000.87
2017-08-06T06:38:41.374Z,1000.75
2017-08-06T06:39:51.716Z,1000.72
2017-08-06T06:41:02.129Z,1000.65
2017-08-06T06:42:12.160Z,1000.62
2017-08-06T06:43:22.194Z,1000.55
2017-08-06T06:44:32.224Z,1000.51
2017-08-06T06:45:42.604Z,1000.48
2017-08-06T06:46:53.007Z,1000.45
2017-08-06T06:48:03.354Z,1000.51
2017-08-06T06:49:13.690Z,1000.53
2017-08-06T06:50:23.729Z,1000.53
2017-08-06T06:51:34.095Z,1000.72
2017-08-06T06:52:44.487Z,1000.75
2017-08-06T06:53:54.839Z,1000.81
2017-08-06T06:55:04.889Z,1000.83
2017-08-06T06:56:15.232Z,1000.84
2017-08-06T06:57:25.589Z,1000.88
2017-08-06T06:58:35.991Z,1000.88
2017-08-06T06:59:46.345Z,1000.96
2017-08-06T07:00:56.698Z,1000.89
2017-08-06T07:02:07.077Z,1000.96
2017-08-06T07:03:17.425Z,1001.04
2017-08-06T07:04:27.820Z,1000.98
2017-08-06T07:05:37.878Z,1001.05
2017-08-06T07:06:47.918Z,1001.17
2017-08-06T07:07:58.276Z,1001.2
2017-08-06T07:09:08.302Z,1001.26
2017-08-06T07:10:18.696Z,1001.33
2017-08-06T07:11:29.041Z,1001.31
2017-08-06T07:12:39.079Z,1001.25
2017-08-06T07:13:49.124Z,1001.23
2017-08-06T07:14:59.465Z,1001.21
2017-08-06T07:16:09.868Z,1001.23
2017-08-06T07:17:20.218Z,1001.27
2017-08-06T07:18:30.596Z,1001.3
2017-08-06T07:19:40.958Z,1001.42
2017-08-06T07:20:50.999Z,1001.57
2017-08-06T07:22:01.408Z,1001.7
2017-08-06T07:23:11.445Z,1001.76
2017-08-06T07:24:21.185Z,1001.86
2017-08-06T07:25:31.467Z,1001.72
2017-08-06T07:26:41.818Z,1001.66
2017-08-06T07:27:52.217Z,1001.72
2017-08-06T07:29:02.561Z,1001.73
2017-08-06T07:30:12.912Z,1001.68
2017-08-06T07:31:23.260Z,1001.68
2017-08-06T07:32:33.605Z,1001.69
2017-08-06T07:33:43.684Z,1001.72
2017-08-06T07:34:54.033Z,1001.73
2017-08-06T07:36:03.763Z,1001.7
2017-08-06T07:37:13.800Z,1001.83
2017-08-06T07:38:24.376Z,1001.87
2017-08-06T07:39:34.782Z,1001.98
2017-08-06T07:40:45.139Z,1001.92
2017-08-06T07:41:55.497Z,1001.94
2017-08-06T07:43:05.211Z,1001.97
2017-08-06T07:44:15.580Z,1001.96
2017-08-06T07:45:25.980Z,1001.9
2017-08-06T07:46:36.325Z,1001.93
2017-08-06T07:47:46.690Z,1001.99
2017-08-06T07:48:57.032Z,1001.95
2017-08-06T07:50:07.729Z,1001.93
2017-08-06T07:51:17.838Z,1002.05
2017-08-06T07:52:28.183Z,1002.03
2017-08-06T07:53:38.528Z,1002.14
2017-08-06T08:03:24.016Z,1002.56
2017-08-06T08:04:36.277Z,1002.62
2017-08-06T08:05:46.636Z,1002.59
2017-08-06T08:06:56.996Z,1002.57
2017-08-06T08:08:07.110Z,1002.58
2017-08-06T08:09:17.456Z,1002.57
2017-08-06T08:10:27.503Z,1002.61
2017-08-06T08:11:37.860Z,1002.64
2017-08-06T08:12:48.271Z,1002.65
2017-08-06T08:13:58.610Z,1002.65
2017-08-06T08:15:08.663Z,1002.7
2017-08-06T08:16:19.041Z,1002.76
2017-08-06T08:17:29.396Z,1002.79
2017-08-06T08:18:39.723Z,1002.83
2017-08-06T08:19:50.087Z,1002.93
2017-08-06T08:21:00.442Z,1002.9
2017-08-06T08:22:10.785Z,1002.92
2017-08-06T08:23:21.197Z,1002.93
2017-08-06T08:24:31.223Z,1002.91
2017-08-06T08:25:41.584Z,1002.89
2017-08-06T08:26:51.942Z,1002.85
2017-08-06T08:28:04.593Z,1002.83
2017-08-06T08:29:16.136Z,1002.79
2017-08-06T08:30:26.498Z,1002.68
2017-08-06T08:31:36.536Z,1002.59
2017-08-06T08:32:46.902Z,1002.46
2017-08-06T08:33:57.264Z,1002.45
2017-08-06T08:35:07.670Z,1002.47
2017-08-06T08:36:17.697Z,1002.57
2017-08-06T08:37:28.047Z,1002.71
2017-08-06T08:38:38.391Z,1002.84
2017-08-06T08:39:48.413Z,1002.89
2017-08-06T08:40:58.509Z,1002.92
2017-08-06T08:42:08.571Z,1002.99
2017-08-06T08:43:18.928Z,1003.02
2017-08-06T08:44:29.265Z,1003.02
2017-08-06T08:45:38.991Z,1003.02
2017-08-06T08:46:49.398Z,1002.97
2017-08-06T08:47:59.754Z,1002.95
2017-08-06T08:49:10.110Z,1002.78
2017-08-06T08:50:20.155Z,1002.64
2017-08-06T08:51:30.499Z,1002.53
2017-08-06T08:52:40.930Z,1002.54
2017-08-06T08:53:51.293Z,1002.55
2017-08-06T08:55:01.337Z,1002.59
2017-08-06T08:56:11.707Z,1002.66
2017-08-06T08:57:22.044Z,1002.65
2017-08-06T08:58:32.464Z,1002.71
2017-08-06T08:59:42.842Z,1002.74
2017-08-06T09:00:55.189Z,1002.71
2017-08-06T09:02:04.611Z,1002.65
2017-08-06T09:03:14.956Z,1002.59
2017-08-06T09:04:25.365Z,1002.59
2017-08-06T09:05:35.724Z,1002.55
2017-08-06T09:06:45.775Z,1002.53
2017-08-06T09:07:56.128Z,1002.48
2017-08-06T09:09:06.499Z,1002.42
2017-08-06T09:10:16.931Z,1002.32
2017-08-06T09:11:27.320Z,1002.35
2017-08-06T09:12:37.367Z,1002.39
2017-08-06T09:13:49.929Z,1002.53
2017-08-06T09:15:00.301Z,1002.61
2017-08-06T09:16:10.694Z,1002.77
2017-08-06T09:17:20.757Z,1002.82
2017-08-06T09:18:31.130Z,1002.82
2017-08-06T09:19:41.488Z,1002.82
2017-08-06T09:20:51.830Z,1002.77
2017-08-06T09:22:02.245Z,1002.68
2017-08-06T09:23:12.592Z,1002.63
2017-08-06T09:24:23.004Z,1002.61
2017-08-06T09:25:33.386Z,1002.51
2017-08-06T09:26:43.737Z,1002.48
2017-08-06T09:27:54.145Z,1002.46
2017-08-06T09:29:04.187Z,1002.46
2017-08-06T09:30:14.543Z,1002.44
2017-08-06T09:31:24.898Z,1002.44
2017-08-06T09:32:35.254Z,1002.46
2017-08-06T09:33:45.667Z,1002.4
2017-08-06T09:34:56.021Z,1002.4
2017-08-06T09:36:06.376Z,1002.35
2017-08-06T09:37:16.739Z,1002.38
2017-08-06T09:38:26.803Z,1002.37
2017-08-06T09:39:37.207Z,1002.28
2017-08-06T09:40:47.249Z,1002.21
2017-08-06T09:41:57.592Z,1002.1
2017-08-06T09:43:07.951Z,1002.04
2017-08-06T09:44:17.983Z,1002.01
2017-08-06T09:45:28.378Z,1001.98
2017-08-06T09:46:38.419Z,1002.05
2017-08-06T09:47:48.482Z,1002.1
2017-08-06T09:48:58.842Z,1002.13
2017-08-06T09:50:08.894Z,1002.18
2017-08-06T09:51:19.301Z,1002.1
2017-08-06T09:52:29.639Z,1002.1
2017-08-06T09:53:39.709Z,1002.14
2017-08-06T09:54:50.077Z,1002.2
2017-08-06T09:56:00.434Z,1002.24
2017-08-06T09:57:10.860Z,1002.29
2017-08-06T09:58:20.893Z,1002.32
2017-08-06T09:59:31.243Z,1002.36
2017-08-06T10:00:41.320Z,1002.37
2017-08-06T10:01:51.677Z,1002.3
2017-08-06T10:03:02.069Z,1002.22
2017-08-06T10:04:12.110Z,1002.2
2017-08-06T10:05:22.468Z,1002.18
2017-08-06T10:06:32.814Z,1002.11
2017-08-06T10:07:43.651Z,1002.18
2017-08-06T10:08:55.097Z,1002.22
2017-08-06T10:10:05.142Z,1002.34
2017-08-06T10:11:15.170Z,1002.43
2017-08-06T10:12:25.512Z,1002.55
2017-08-06T10:13:35.555Z,1002.64
2017-08-06T10:14:45.969Z,1002.68
2017-08-06T10:15:56.307Z,1002.62
2017-08-06T10:17:06.659Z,1002.57
2017-08-06T10:18:19.071Z,1002.45
2017-08-06T10:19:29.416Z,1002.28
2017-08-06T10:20:39.816Z,1002.22
2017-08-06T10:21:49.553Z,1002.2
2017-08-06T10:22:59.904Z,1002.22
2017-08-06T10:24:10.257Z,1002.31
2017-08-06T10:25:20.632Z,1002.33
2017-08-06T10:26:31.039Z,1002.47
2017-08-06T10:27:41.398Z,1002.47
2017-08-06T10:28:51.743Z,1002.47
2017-08-06T10:30:02.108Z,1002.33
2017-08-06T10:31:11.522Z,1002.2
2017-08-06T10:32:21.608Z,1002.06
2017-08-06T10:33:31.662Z,1001.99
2017-08-06T10:34:42.015Z,1001.95
2017-08-06T10:35:52.365Z,1001.9
2017-08-06T10:37:02.403Z,1001.83
2017-08-06T10:38:12.812Z,1001.81
2017-08-06T10:39:23.167Z,1001.74
2017-08-06T10:40:33.515Z,1001.68
2017-08-06T10:41:43.547Z,1001.74
2017-08-06T10:42:53.578Z,1001.77
2017-08-06T10:44:03.995Z,1001.75
2017-08-06T10:45:13.728Z,1001.76
2017-08-06T10:46:24.087Z,1001.74
2017-08-06T10:47:35.601Z,1001.71
2017-08-06T10:48:45.981Z,1001.68
2017-08-06T10:49:56.372Z,1001.59
2017-08-06T10:51:06.726Z,1001.63
2017-08-06T10:52:17.084Z,1001.6
2017-08-06T10:53:27.455Z,1001.59
2017-08-06T10:54:37.507Z,1001.62
2017-08-06T10:55:47.915Z,1001.55
2017-08-06T10:56:57.970Z,1001.55
2017-08-06T10:58:08.310Z,1001.59
2017-08-06T10:59:18.349Z,1001.7
2017-08-06T11:00:28.717Z,1001.76
2017-08-06T11:01:38.819Z,1001.76
2017-08-06T11:02:49.188Z,1001.69
2017-08-06T11:03:59.539Z,1001.65
2017-08-06T11:05:09.908Z,1001.71
2017-08-06T11:06:20.276Z,1001.77
2017-08-06T11:07:30.700Z,1001.76
2017-08-06T11:08:40.755Z,1001.84
2017-08-06T11:09:51.114Z,1001.86
2017-08-06T11:11:01.499Z,1001.91
2017-08-06T11:12:11.527Z,1002.02
2017-08-06T11:13:21.615Z,1002.03
2017-08-06T11:14:31.966Z,1002.06
2017-08-06T11:15:41.999Z,1002.1
2017-08-06T11:16:52.058Z,1002.15
2017-08-06T11:18:02.096Z,1002.18
2017-08-06T11:19:12.218Z,1002.25
2017-08-06T11:20:22.561Z,1002.32
2017-08-06T11:21:32.918Z,1002.35
2017-08-06T11:22:42.982Z,1002.36
2017-08-06T11:23:53.314Z,1002.38
2017-08-06T11:25:03.717Z,1002.32
2017-08-06T11:26:14.765Z,1002.33
2017-08-06T11:27:25.096Z,1002.33
2017-08-06T11:28:34.833Z,1002.31
2017-08-06T11:29:44.880Z,1002.31
2017-08-06T11:30:54.331Z,1002.33
2017-08-06T11:32:04.382Z,1002.32
2017-08-06T11:33:14.433Z,1002.2
2017-08-06T11:34:24.472Z,1002.21
2017-08-06T11:35:34.514Z,1002.2
2017-08-06T11:36:44.912Z,1002.2
2017-08-06T11:37:55.277Z,1002.15
2017-08-06T11:39:05.665Z,1002.14
2017-08-06T11:40:16.031Z,1002.13
2017-08-06T11:41:26.092Z,1002.13
2017-08-06T11:42:36.179Z,1002.15
2017-08-06T11:43:46.530Z,1002.08
2017-08-06T11:44:56.893Z,1002.06
2017-08-06T11:46:06.953Z,1002.05
2017-08-06T11:47:17.300Z,1002.05
2017-08-06T11:48:27.708Z,1002.09
2017-08-06T11:49:38.074Z,1002.09
2017-08-06T11:50:48.439Z,1002.11
2017-08-06T11:51:58.832Z,1002.09
2017-08-06T11:53:08.879Z,1002.06
2017-08-06T11:54:19.291Z,1002.05
2017-08-06T11:55:29.664Z,1002.05
2017-08-06T11:56:40.041Z,1002.08
2017-08-06T11:57:50.409Z,1002.12
2017-08-06T11:59:00.762Z,1002.15
2017-08-06T12:00:10.862Z,1002.19
2017-08-06T12:01:21.225Z,1002.19
2017-08-06T12:02:33.979Z,1002.2
2017-08-06T12:03:44.052Z,1002.11
2017-08-06T12:04:54.404Z,1002.07
2017-08-06T12:06:04.809Z,1002.07
2017-08-06T12:07:15.159Z,1002.13
2017-08-06T12:08:25.503Z,1002.16
2017-08-06T12:09:35.546Z,1002.25
2017-08-06T12:10:45.899Z,1002.25
2017-08-06T12:11:56.333Z,1002.25
2017-08-06T12:13:06.686Z,1002.26
2017-08-06T12:14:16.740Z,1002.22
2017-08-06T12:15:27.103Z,1002.19
2017-08-06T12:16:37.476Z,1002.19
2017-08-06T12:17:47.874Z,1002.18
2017-08-06T12:18:58.239Z,1002.15
2017-08-06T12:20:08.596Z,1002.19
2017-08-06T12:21:18.967Z,1002.24
2017-08-06T12:22:29.029Z,1002.25
2017-08-06T12:23:39.477Z,1002.23
2017-08-06T12:24:49.839Z,1002.2
2017-08-06T12:26:00.193Z,1002.19
2017-08-06T12:27:10.572Z,1002.21
2017-08-06T12:28:20.638Z,1002.16
2017-08-06T12:29:31.074Z,1002.07
2017-08-06T12:30:41.440Z,1002.09
2017-08-06T12:31:51.480Z,1002.14
2017-08-06T12:33:01.828Z,1002.11
2017-08-06T12:34:12.198Z,1002.16
2017-08-06T12:35:22.606Z,1002.2
2017-08-06T12:36:32.983Z,1002.16
2017-08-06T12:37:44.578Z,1002.11
2017-08-06T12:38:54.956Z,1002.16
2017-08-06T12:40:05.014Z,1002.13
2017-08-06T12:41:15.407Z,1002.14
2017-08-06T12:42:25.770Z,1002.11
2017-08-06T12:43:36.140Z,1002.08
2017-08-06T12:44:46.506Z,1002.08
2017-08-06T12:45:56.564Z,1002.06
2017-08-06T12:47:06.912Z,1002.09
2017-08-06T12:48:17.271Z,1002.11
2017-08-06T12:49:27.645Z,1002.14
2017-08-06T12:50:37.696Z,1002.16
2017-08-06T12:51:48.049Z,1002.2
2017-08-06T12:52:57.768Z,1002.13
2017-08-06T12:54:08.152Z,1002.15
2017-08-06T12:55:18.510Z,1002.08
2017-08-06T12:56:28.917Z,1002.07
2017-08-06T12:57:39.277Z,1002.06
2017-08-06T12:58:49.633Z,1002.06
2017-08-06T13:00:00.017Z,1002.02
2017-08-06T13:01:10.088Z,1002.12
2017-08-06T13:02:20.450Z,1002.13
2017-08-06T13:03:30.794Z,1002.18
2017-08-06T13:04:40.875Z,1002.21
2017-08-06T13:05:51.226Z,1002.19
2017-08-06T13:07:01.570Z,1002.25
2017-08-06T13:08:11.624Z,1002.22
2017-08-06T13:09:22.005Z,1002.19
2017-08-06T13:10:32.382Z,1002.17
2017-08-06T13:11:42.731Z,1002.18
2017-08-06T13:12:52.785Z,1002.2
2017-08-06T13:14:02.831Z,1002.24
2017-08-06T13:15:13.189Z,1002.23
2017-08-06T13:16:23.245Z,1002.29
2017-08-06T13:17:33.604Z,1002.24
2017-08-06T13:18:43.965Z,1002.24
2017-08-06T13:19:54.006Z,1002.22
2017-08-06T13:21:04.113Z,1002.16
2017-08-06T13:22:14.160Z,1002.15
2017-08-06T13:23:24.529Z,1002.15
2017-08-06T13:24:34.889Z,1002.21
2017-08-06T13:25:45.258Z,1002.21
2017-08-06T13:26:55.341Z,1002.27
2017-08-06T13:28:05.690Z,1002.32
2017-08-06T13:29:15.726Z,1002.31
2017-08-06T13:30:25.780Z,1002.32
2017-08-06T13:31:35.832Z,1002.25
2017-08-06T13:32:46.260Z,1002.16
2017-08-06T13:33:56.622Z,1002.16
2017-08-06T13:35:06.675Z,1002.12
2017-08-06T13:36:16.719Z,1002.07
2017-08-06T13:37:26.757Z,1001.97
2017-08-06T13:38:36.864Z,1001.94
2017-08-06T13:39:47.241Z,1001.89
2017-08-06T13:40:58.345Z,1001.8
2017-08-06T13:42:08.704Z,1001.76
2017-08-06T13:43:18.754Z,1001.66
2017-08-06T13:44:29.116Z,1001.61
2017-08-06T13:45:39.480Z,1001.6
2017-08-06T13:46:49.819Z,1001.54
2017-08-06T13:48:00.189Z,1001.5
2017-08-06T13:49:10.553Z,1001.51
2017-08-06T13:50:20.902Z,1001.5
2017-08-06T13:51:30.942Z,1001.57
2017-08-06T13:52:41.300Z,1001.65
2017-08-06T13:53:51.652Z,1001.73
2017-08-06T13:55:01.693Z,1001.75
2017-08-06T13:56:12.062Z,1001.79
2017-08-06T13:57:22.434Z,1001.81
2017-08-06T13:58:32.819Z,1001.86
2017-08-06T13:59:42.903Z,1001.99
2017-08-06T14:00:53.256Z,1002
2017-08-06T14:02:03.625Z,1002.05
2017-08-06T14:03:13.676Z,1002.08
2017-08-06T14:04:24.043Z,1002.09
2017-08-06T14:05:34.092Z,1002.14
2017-08-06T14:06:44.157Z,1002.13
2017-08-06T14:07:54.657Z,1002.18
2017-08-06T14:09:05.021Z,1002.22
2017-08-06T14:10:15.397Z,1002.15
2017-08-06T14:11:25.997Z,1002.2
2017-08-06T14:12:36.070Z,1002.13
2017-08-06T14:13:46.097Z,1002.13
2017-08-06T14:14:56.460Z,1002.15
2017-08-06T14:16:06.586Z,1002.19
2017-08-06T14:17:16.648Z,1002.17
2017-08-06T14:18:27.002Z,1002.23
2017-08-06T14:19:37.351Z,1002.2
2017-08-06T14:20:47.388Z,1002.17
2017-08-06T14:21:57.421Z,1002.18
2017-08-06T14:23:07.780Z,1002.2
2017-08-06T14:24:17.837Z,1002.2
2017-08-06T14:25:27.891Z,1002.21
2017-08-06T14:26:37.921Z,1002.21
2017-08-06T14:27:47.983Z,1002.21
2017-08-06T14:28:58.330Z,1002.18
2017-08-06T14:30:08.727Z,1002.15
2017-08-06T14:31:19.585Z,1002.14
2017-08-06T14:32:29.655Z,1002.14
2017-08-06T14:33:39.378Z,1002.13
2017-08-06T14:34:49.720Z,1002.13
2017-08-06T14:36:00.079Z,1002.1
2017-08-06T14:37:10.117Z,1002.05
2017-08-06T14:38:20.162Z,1002.13
2017-08-06T14:39:30.542Z,1002.04
2017-08-06T14:40:40.909Z,1002.06
2017-08-06T14:41:51.256Z,1002.05
2017-08-06T14:43:00.983Z,1002.05
2017-08-06T14:44:11.335Z,1002.03
2017-08-06T14:45:21.692Z,1002.11
2017-08-06T14:46:32.082Z,1002.13
2017-08-06T14:47:42.152Z,1002.08
2017-08-06T14:48:52.508Z,1002.07
2017-08-06T14:50:02.553Z,1002.07
2017-08-06T14:51:12.916Z,1002.01
2017-08-06T14:52:22.635Z,1002
2017-08-06T14:53:33.012Z,1001.95
2017-08-06T14:54:43.356Z,1001.99
2017-08-06T14:55:53.718Z,1001.98
2017-08-06T14:57:04.082Z,1001.97
2017-08-06T14:58:14.424Z,1001.93
2017-08-06T14:59:26.413Z,1001.91
2017-08-06T15:00:36.756Z,1001.87
2017-08-06T15:01:47.100Z,1001.75
2017-08-06T15:02:57.134Z,1001.72